sensor_id;sensor_type;location;lat;lon;timestamp;temperature;humidity
19952;DHT22;10137;49.406;19.484;2023-04-25T00:01:40;9.40;99.90
19952;DHT22;10137;49.406;19.484;2023-04-25T00:04:10;9.20;99.90
19952;DHT22;10137;49.406;19.484;2023-04-25T00:06:39;9.30;99.90
19952;DHT22;10137;49.406;19.484;2023-04-25T00:09:09;9.20;99.90
19952;DHT22;10137;49.406;19.484;2023-04-25T00:11:38;9.30;99.90
19952;DHT22;10137;49.406;19.484;2023-04-25T00:14:06;9.30;99.90
19952;DHT22;10137;49.406;19.484;2023-04-25T00:16:35;9.30;99.90
19952;DHT22;10137;49.406;19.484;2023-04-25T00:19:02;9.30;99.90
19952;DHT22;10137;49.406;19.484;2023-04-25T00:21:31;9.20;99.90
19952;DHT22;10137;49.406;19.484;2023-04-25T00:24:00;9.20;99.90
19952;DHT22;10137;49.406;19.484;2023-04-25T00:26:30;9.20;99.90
19952;DHT22;10137;49.406;19.484;2023-04-25T00:28:57;9.10;99.90
19952;DHT22;10137;49.406;19.484;2023-04-25T00:31:25;9.20;99.90
19952;DHT22;10137;49.406;19.484;2023-04-25T00:33:53;9.20;99.90
19952;DHT22;10137;49.406;19.484;2023-04-25T00:36:21;9.20;99.90
19952;DHT22;10137;49.406;19.484;2023-04-25T00:38:50;9.20;99.90
19952;DHT22;10137;49.406;19.484;2023-04-25T00:41:17;9.20;99.90
19952;DHT22;10137;49.406;19.484;2023-04-25T00:43:48;9.10;99.90
19952;DHT22;10137;49.406;19.484;2023-04-25T00:46:15;9.20;99.90
19952;DHT22;10137;49.406;19.484;2023-04-25T00:48:43;9.10;99.90
19952;DHT22;10137;49.406;19.484;2023-04-25T00:51:14;9.10;99.90
19952;DHT22;10137;49.406;19.484;2023-04-25T00:53:44;9.10;99.90
19952;DHT22;10137;49.406;19.484;2023-04-25T00:56:12;9.10;99.90
19952;DHT22;10137;49.406;19.484;2023-04-25T00:58:41;9.10;99.90
19952;DHT22;10137;49.406;19.484;2023-04-25T01:01:11;9.10;99.90
19952;DHT22;10137;49.406;19.484;2023-04-25T01:03:40;9.00;99.90
19952;DHT22;10137;49.406;19.484;2023-04-25T01:06:09;9.00;99.90
19952;DHT22;10137;49.406;19.484;2023-04-25T01:08:38;9.00;99.90
19952;DHT22;10137;49.406;19.484;2023-04-25T01:11:06;9.00;99.90
19952;DHT22;10137;49.406;19.484;2023-04-25T01:13:34;9.10;99.90
19952;DHT22;10137;49.406;19.484;2023-04-25T01:16:03;9.10;99.90
19952;DHT22;10137;49.406;19.484;2023-04-25T01:18:33;9.10;99.90
19952;DHT22;10137;49.406;19.484;2023-04-25T01:21:10;9.00;99.90
19952;DHT22;10137;49.406;19.484;2023-04-25T01:23:40;9.00;99.90
19952;DHT22;10137;49.406;19.484;2023-04-25T01:26:09;9.10;99.90
19952;DHT22;10137;49.406;19.484;2023-04-25T01:28:38;9.10;99.90
19952;DHT22;10137;49.406;19.484;2023-04-25T01:31:08;9.00;99.90
19952;DHT22;10137;49.406;19.484;2023-04-25T01:33:37;9.00;99.90
19952;DHT22;10137;49.406;19.484;2023-04-25T01:36:05;9.00;99.90
19952;DHT22;10137;49.406;19.484;2023-04-25T01:38:33;8.90;99.90
19952;DHT22;10137;49.406;19.484;2023-04-25T01:41:02;8.90;99.90
19952;DHT22;10137;49.406;19.484;2023-04-25T01:43:31;8.80;99.90
19952;DHT22;10137;49.406;19.484;2023-04-25T01:45:58;8.80;99.90
19952;DHT22;10137;49.406;19.484;2023-04-25T01:48:27;8.70;99.90
19952;DHT22;10137;49.406;19.484;2023-04-25T01:50:54;8.70;99.90
19952;DHT22;10137;49.406;19.484;2023-04-25T01:53:23;8.60;99.90
19952;DHT22;10137;49.406;19.484;2023-04-25T01:55:53;8.50;99.90
19952;DHT22;10137;49.406;19.484;2023-04-25T01:58:21;8.50;99.90
19952;DHT22;10137;49.406;19.484;2023-04-25T02:00:48;8.60;99.90
19952;DHT22;10137;49.406;19.484;2023-04-25T02:03:16;8.50;99.90
19952;DHT22;10137;49.406;19.484;2023-04-25T02:05:44;8.40;99.90
19952;DHT22;10137;49.406;19.484;2023-04-25T02:08:11;8.30;99.90
19952;DHT22;10137;49.406;19.484;2023-04-25T02:10:40;8.50;99.90
19952;DHT22;10137;49.406;19.484;2023-04-25T02:13:09;8.50;99.90
19952;DHT22;10137;49.406;19.484;2023-04-25T02:15:36;8.40;99.90
19952;DHT22;10137;49.406;19.484;2023-04-25T02:18:05;8.50;99.90
19952;DHT22;10137;49.406;19.484;2023-04-25T02:20:34;8.50;99.90
19952;DHT22;10137;49.406;19.484;2023-04-25T02:23:02;8.60;99.90
19952;DHT22;10137;49.406;19.484;2023-04-25T02:25:30;8.60;99.90
19952;DHT22;10137;49.406;19.484;2023-04-25T02:27:57;8.60;99.90
19952;DHT22;10137;49.406;19.484;2023-04-25T02:30:26;8.50;99.90
19952;DHT22;10137;49.406;19.484;2023-04-25T02:32:54;8.60;99.90
19952;DHT22;10137;49.406;19.484;2023-04-25T02:35:22;8.50;99.90
19952;DHT22;10137;49.406;19.484;2023-04-25T02:37:50;8.50;99.90
19952;DHT22;10137;49.406;19.484;2023-04-25T02:40:18;8.50;99.90
19952;DHT22;10137;49.406;19.484;2023-04-25T02:42:47;8.50;99.90
19952;DHT22;10137;49.406;19.484;2023-04-25T02:45:14;8.50;99.90
19952;DHT22;10137;49.406;19.484;2023-04-25T02:47:44;8.40;99.90
19952;DHT22;10137;49.406;19.484;2023-04-25T02:50:11;8.50;99.90
19952;DHT22;10137;49.406;19.484;2023-04-25T02:52:39;8.50;99.90
19952;DHT22;10137;49.406;19.484;2023-04-25T02:55:07;8.50;99.90
19952;DHT22;10137;49.406;19.484;2023-04-25T02:57:35;8.50;99.90
19952;DHT22;10137;49.406;19.484;2023-04-25T03:00:04;8.50;99.90
19952;DHT22;10137;49.406;19.484;2023-04-25T03:02:33;8.50;99.90
19952;DHT22;10137;49.406;19.484;2023-04-25T03:05:03;8.60;99.90
19952;DHT22;10137;49.406;19.484;2023-04-25T03:07:31;8.60;99.90
19952;DHT22;10137;49.406;19.484;2023-04-25T03:10:00;8.60;99.90
19952;DHT22;10137;49.406;19.484;2023-04-25T03:12:28;8.60;99.90
19952;DHT22;10137;49.406;19.484;2023-04-25T03:14:56;8.60;99.90
19952;DHT22;10137;49.406;19.484;2023-04-25T03:17:25;8.50;99.90
19952;DHT22;10137;49.406;19.484;2023-04-25T03:19:54;8.40;99.90
19952;DHT22;10137;49.406;19.484;2023-04-25T03:22:23;8.40;99.90
19952;DHT22;10137;49.406;19.484;2023-04-25T03:24:51;8.30;99.90
19952;DHT22;10137;49.406;19.484;2023-04-25T03:27:19;8.30;99.90
19952;DHT22;10137;49.406;19.484;2023-04-25T03:29:47;8.30;99.90
19952;DHT22;10137;49.406;19.484;2023-04-25T03:32:15;8.30;99.90
19952;DHT22;10137;49.406;19.484;2023-04-25T03:34:44;8.20;99.90
19952;DHT22;10137;49.406;19.484;2023-04-25T03:37:12;8.20;99.90
19952;DHT22;10137;49.406;19.484;2023-04-25T03:39:43;8.20;99.90
19952;DHT22;10137;49.406;19.484;2023-04-25T03:42:10;8.10;99.90
19952;DHT22;10137;49.406;19.484;2023-04-25T03:44:39;8.00;99.90
19952;DHT22;10137;49.406;19.484;2023-04-25T03:47:06;7.80;99.90
19952;DHT22;10137;49.406;19.484;2023-04-25T03:49:34;7.80;99.90
19952;DHT22;10137;49.406;19.484;2023-04-25T03:52:03;7.80;99.90
19952;DHT22;10137;49.406;19.484;2023-04-25T03:54:31;7.70;99.90
19952;DHT22;10137;49.406;19.484;2023-04-25T03:56:59;7.80;99.90
19952;DHT22;10137;49.406;19.484;2023-04-25T03:59:28;7.80;99.90
19952;DHT22;10137;49.406;19.484;2023-04-25T04:01:55;7.70;99.90
19952;DHT22;10137;49.406;19.484;2023-04-25T04:04:23;7.60;99.90
19952;DHT22;10137;49.406;19.484;2023-04-25T04:06:52;7.70;99.90
19952;DHT22;10137;49.406;19.484;2023-04-25T04:09:20;7.70;99.90
19952;DHT22;10137;49.406;19.484;2023-04-25T04:11:47;7.70;99.90
19952;DHT22;10137;49.406;19.484;2023-04-25T04:14:17;7.70;99.90
19952;DHT22;10137;49.406;19.484;2023-04-25T04:16:45;7.60;99.90
19952;DHT22;10137;49.406;19.484;2023-04-25T04:19:13;7.50;99.90
19952;DHT22;10137;49.406;19.484;2023-04-25T04:21:42;7.60;99.90
19952;DHT22;10137;49.406;19.484;2023-04-25T04:24:13;7.60;99.90
19952;DHT22;10137;49.406;19.484;2023-04-25T04:26:42;7.60;99.90
19952;DHT22;10137;49.406;19.484;2023-04-25T04:29:11;7.60;99.90
19952;DHT22;10137;49.406;19.484;2023-04-25T04:31:50;7.70;99.90
19952;DHT22;10137;49.406;19.484;2023-04-25T04:34:19;7.50;99.90
19952;DHT22;10137;49.406;19.484;2023-04-25T04:36:47;7.50;99.90
19952;DHT22;10137;49.406;19.484;2023-04-25T04:39:14;7.40;99.90
19952;DHT22;10137;49.406;19.484;2023-04-25T04:41:43;7.40;99.90
19952;DHT22;10137;49.406;19.484;2023-04-25T04:44:11;7.30;99.90
19952;DHT22;10137;49.406;19.484;2023-04-25T04:46:41;7.30;99.90
19952;DHT22;10137;49.406;19.484;2023-04-25T04:49:11;7.40;99.90
19952;DHT22;10137;49.406;19.484;2023-04-25T04:51:41;7.30;99.90
19952;DHT22;10137;49.406;19.484;2023-04-25T04:54:11;7.20;99.90
19952;DHT22;10137;49.406;19.484;2023-04-25T04:56:40;7.20;99.90
19952;DHT22;10137;49.406;19.484;2023-04-25T04:59:11;7.20;99.90
19952;DHT22;10137;49.406;19.484;2023-04-25T05:01:41;7.20;99.90
19952;DHT22;10137;49.406;19.484;2023-04-25T05:04:19;7.20;99.90
19952;DHT22;10137;49.406;19.484;2023-04-25T05:06:48;7.30;99.90
19952;DHT22;10137;49.406;19.484;2023-04-25T05:09:17;7.10;99.90
19952;DHT22;10137;49.406;19.484;2023-04-25T05:11:46;7.20;99.90
19952;DHT22;10137;49.406;19.484;2023-04-25T05:14:16;7.10;99.90
19952;DHT22;10137;49.406;19.484;2023-04-25T05:16:43;7.10;99.90
19952;DHT22;10137;49.406;19.484;2023-04-25T05:19:10;7.10;99.90
19952;DHT22;10137;49.406;19.484;2023-04-25T05:21:41;7.10;99.90
19952;DHT22;10137;49.406;19.484;2023-04-25T05:24:09;7.10;99.90
19952;DHT22;10137;49.406;19.484;2023-04-25T05:26:38;7.20;99.90
19952;DHT22;10137;49.406;19.484;2023-04-25T05:29:06;7.20;99.90
19952;DHT22;10137;49.406;19.484;2023-04-25T05:31:36;7.20;99.90
19952;DHT22;10137;49.406;19.484;2023-04-25T05:34:04;7.20;99.90
19952;DHT22;10137;49.406;19.484;2023-04-25T05:36:32;7.10;99.90
19952;DHT22;10137;49.406;19.484;2023-04-25T05:39:02;7.20;99.90
19952;DHT22;10137;49.406;19.484;2023-04-25T05:41:31;7.20;99.90
19952;DHT22;10137;49.406;19.484;2023-04-25T05:44:00;7.30;99.90
19952;DHT22;10137;49.406;19.484;2023-04-25T05:46:29;7.30;99.90
19952;DHT22;10137;49.406;19.484;2023-04-25T05:48:57;7.30;99.90
19952;DHT22;10137;49.406;19.484;2023-04-25T05:51:25;7.30;99.90
19952;DHT22;10137;49.406;19.484;2023-04-25T05:53:54;7.30;99.90
19952;DHT22;10137;49.406;19.484;2023-04-25T05:56:23;7.30;99.90
19952;DHT22;10137;49.406;19.484;2023-04-25T05:58:52;7.30;99.90
19952;DHT22;10137;49.406;19.484;2023-04-25T06:01:22;7.20;99.90
19952;DHT22;10137;49.406;19.484;2023-04-25T06:03:50;7.10;99.90
19952;DHT22;10137;49.406;19.484;2023-04-25T06:06:19;7.20;99.90
19952;DHT22;10137;49.406;19.484;2023-04-25T06:08:47;7.20;99.90
19952;DHT22;10137;49.406;19.484;2023-04-25T06:11:15;7.20;99.90
19952;DHT22;10137;49.406;19.484;2023-04-25T06:13:46;7.20;99.90
19952;DHT22;10137;49.406;19.484;2023-04-25T06:16:15;7.30;99.90
19952;DHT22;10137;49.406;19.484;2023-04-25T06:18:43;7.20;99.90
19952;DHT22;10137;49.406;19.484;2023-04-25T06:21:12;7.20;99.90
19952;DHT22;10137;49.406;19.484;2023-04-25T06:23:40;7.20;99.90
19952;DHT22;10137;49.406;19.484;2023-04-25T06:26:08;7.20;99.90
19952;DHT22;10137;49.406;19.484;2023-04-25T06:28:37;7.30;99.90
19952;DHT22;10137;49.406;19.484;2023-04-25T06:31:06;7.30;99.90
19952;DHT22;10137;49.406;19.484;2023-04-25T06:33:34;7.40;99.90
19952;DHT22;10137;49.406;19.484;2023-04-25T06:36:01;7.40;99.90
19952;DHT22;10137;49.406;19.484;2023-04-25T06:38:28;7.40;99.90
19952;DHT22;10137;49.406;19.484;2023-04-25T06:40:58;7.30;99.90
19952;DHT22;10137;49.406;19.484;2023-04-25T06:43:29;7.30;99.90
19952;DHT22;10137;49.406;19.484;2023-04-25T06:46:01;7.30;99.90
19952;DHT22;10137;49.406;19.484;2023-04-25T06:48:31;7.40;99.90
19952;DHT22;10137;49.406;19.484;2023-04-25T06:50:59;7.40;99.90
19952;DHT22;10137;49.406;19.484;2023-04-25T06:53:28;7.50;99.90
19952;DHT22;10137;49.406;19.484;2023-04-25T06:55:56;7.50;99.90
19952;DHT22;10137;49.406;19.484;2023-04-25T06:58:24;7.50;99.90
19952;DHT22;10137;49.406;19.484;2023-04-25T07:00:53;7.50;99.90
19952;DHT22;10137;49.406;19.484;2023-04-25T07:03:24;7.40;99.90
19952;DHT22;10137;49.406;19.484;2023-04-25T07:05:56;7.40;99.90
19952;DHT22;10137;49.406;19.484;2023-04-25T07:08:24;7.40;99.90
19952;DHT22;10137;49.406;19.484;2023-04-25T07:10:52;7.40;99.90
19952;DHT22;10137;49.406;19.484;2023-04-25T07:13:20;7.40;99.90
19952;DHT22;10137;49.406;19.484;2023-04-25T07:15:49;7.40;99.90
19952;DHT22;10137;49.406;19.484;2023-04-25T07:18:17;7.30;99.90
19952;DHT22;10137;49.406;19.484;2023-04-25T07:20:47;7.40;99.90
19952;DHT22;10137;49.406;19.484;2023-04-25T07:23:17;7.30;99.90
19952;DHT22;10137;49.406;19.484;2023-04-25T07:25:45;7.40;99.90
19952;DHT22;10137;49.406;19.484;2023-04-25T07:28:15;7.50;99.90
19952;DHT22;10137;49.406;19.484;2023-04-25T07:30:42;7.50;99.90
19952;DHT22;10137;49.406;19.484;2023-04-25T07:33:10;7.50;99.90
19952;DHT22;10137;49.406;19.484;2023-04-25T07:35:40;7.60;99.90
19952;DHT22;10137;49.406;19.484;2023-04-25T07:38:08;7.60;99.90
19952;DHT22;10137;49.406;19.484;2023-04-25T07:40:37;7.70;99.90
19952;DHT22;10137;49.406;19.484;2023-04-25T07:43:05;7.70;99.90
19952;DHT22;10137;49.406;19.484;2023-04-25T07:45:34;7.70;99.90
19952;DHT22;10137;49.406;19.484;2023-04-25T07:48:02;7.90;99.90
19952;DHT22;10137;49.406;19.484;2023-04-25T07:50:30;7.80;99.90
19952;DHT22;10137;49.406;19.484;2023-04-25T07:52:59;8.00;99.90
19952;DHT22;10137;49.406;19.484;2023-04-25T07:55:26;8.00;99.90
19952;DHT22;10137;49.406;19.484;2023-04-25T07:57:59;8.00;99.90
19952;DHT22;10137;49.406;19.484;2023-04-25T08:00:28;8.10;99.90
19952;DHT22;10137;49.406;19.484;2023-04-25T08:02:58;8.00;99.90
19952;DHT22;10137;49.406;19.484;2023-04-25T08:05:26;8.00;99.90
19952;DHT22;10137;49.406;19.484;2023-04-25T08:07:53;8.00;99.90
19952;DHT22;10137;49.406;19.484;2023-04-25T08:10:22;7.90;99.90
19952;DHT22;10137;49.406;19.484;2023-04-25T08:12:49;8.00;99.90
19952;DHT22;10137;49.406;19.484;2023-04-25T08:15:19;8.10;99.90
19952;DHT22;10137;49.406;19.484;2023-04-25T08:17:48;8.10;99.90
19952;DHT22;10137;49.406;19.484;2023-04-25T08:20:17;8.20;99.90
19952;DHT22;10137;49.406;19.484;2023-04-25T08:22:45;8.30;99.90
19952;DHT22;10137;49.406;19.484;2023-04-25T08:25:15;8.30;99.90
19952;DHT22;10137;49.406;19.484;2023-04-25T08:27:43;8.30;99.90
19952;DHT22;10137;49.406;19.484;2023-04-25T08:30:12;8.40;99.90
19952;DHT22;10137;49.406;19.484;2023-04-25T08:32:43;8.20;99.90
19952;DHT22;10137;49.406;19.484;2023-04-25T08:35:11;8.30;99.90
19952;DHT22;10137;49.406;19.484;2023-04-25T08:37:39;8.30;99.90
19952;DHT22;10137;49.406;19.484;2023-04-25T08:40:11;8.40;99.90
19952;DHT22;10137;49.406;19.484;2023-04-25T08:42:41;8.40;99.90
19952;DHT22;10137;49.406;19.484;2023-04-25T08:45:09;8.40;99.90
19952;DHT22;10137;49.406;19.484;2023-04-25T08:47:38;8.40;99.90
19952;DHT22;10137;49.406;19.484;2023-04-25T08:50:11;8.30;99.90
19952;DHT22;10137;49.406;19.484;2023-04-25T08:52:44;8.50;99.90
19952;DHT22;10137;49.406;19.484;2023-04-25T08:55:16;8.50;99.90
19952;DHT22;10137;49.406;19.484;2023-04-25T08:57:44;8.60;99.90
19952;DHT22;10137;49.406;19.484;2023-04-25T09:00:14;8.50;99.90
19952;DHT22;10137;49.406;19.484;2023-04-25T09:02:42;8.60;99.90
19952;DHT22;10137;49.406;19.484;2023-04-25T09:05:11;8.50;99.90
19952;DHT22;10137;49.406;19.484;2023-04-25T09:07:40;8.40;99.90
19952;DHT22;10137;49.406;19.484;2023-04-25T09:10:07;8.50;99.90
19952;DHT22;10137;49.406;19.484;2023-04-25T09:12:36;8.50;99.90
19952;DHT22;10137;49.406;19.484;2023-04-25T09:15:06;8.50;99.90
19952;DHT22;10137;49.406;19.484;2023-04-25T09:17:35;8.50;99.90
19952;DHT22;10137;49.406;19.484;2023-04-25T09:20:09;8.50;99.90
19952;DHT22;10137;49.406;19.484;2023-04-25T09:22:38;8.50;99.90
19952;DHT22;10137;49.406;19.484;2023-04-25T09:25:08;8.50;99.90
19952;DHT22;10137;49.406;19.484;2023-04-25T09:27:49;8.60;99.90
19952;DHT22;10137;49.406;19.484;2023-04-25T09:30:19;8.70;99.90
19952;DHT22;10137;49.406;19.484;2023-04-25T09:33:05;8.70;99.90
19952;DHT22;10137;49.406;19.484;2023-04-25T09:35:36;8.80;99.90
19952;DHT22;10137;49.406;19.484;2023-04-25T09:38:14;8.90;99.90
19952;DHT22;10137;49.406;19.484;2023-04-25T09:40:47;8.80;99.90
19952;DHT22;10137;49.406;19.484;2023-04-25T09:43:20;8.90;99.90
19952;DHT22;10137;49.406;19.484;2023-04-25T09:45:54;9.00;99.90
19952;DHT22;10137;49.406;19.484;2023-04-25T09:48:25;9.10;99.90
19952;DHT22;10137;49.406;19.484;2023-04-25T09:51:08;9.10;99.90
19952;DHT22;10137;49.406;19.484;2023-04-25T09:53:39;9.20;99.90
19952;DHT22;10137;49.406;19.484;2023-04-25T09:56:09;9.40;99.90
19952;DHT22;10137;49.406;19.484;2023-04-25T09:58:38;9.40;99.90
19952;DHT22;10137;49.406;19.484;2023-04-25T10:01:08;9.40;99.90
19952;DHT22;10137;49.406;19.484;2023-04-25T10:03:38;9.50;99.90
19952;DHT22;10137;49.406;19.484;2023-04-25T10:06:08;9.60;99.90
19952;DHT22;10137;49.406;19.484;2023-04-25T10:08:38;9.60;99.90
19952;DHT22;10137;49.406;19.484;2023-04-25T10:11:08;9.60;99.90
19952;DHT22;10137;49.406;19.484;2023-04-25T10:13:36;9.70;99.90
19952;DHT22;10137;49.406;19.484;2023-04-25T10:16:05;9.70;99.90
19952;DHT22;10137;49.406;19.484;2023-04-25T10:18:33;9.80;99.90
19952;DHT22;10137;49.406;19.484;2023-04-25T10:21:02;9.90;99.90
19952;DHT22;10137;49.406;19.484;2023-04-25T10:23:32;9.90;99.90
19952;DHT22;10137;49.406;19.484;2023-04-25T10:26:03;9.80;99.90
19952;DHT22;10137;49.406;19.484;2023-04-25T10:31:45;9.70;99.90
19952;DHT22;10137;49.406;19.484;2023-04-25T10:34:15;9.70;99.90
19952;DHT22;10137;49.406;19.484;2023-04-25T10:36:49;9.80;99.90
19952;DHT22;10137;49.406;19.484;2023-04-25T10:39:23;9.80;99.90
19952;DHT22;10137;49.406;19.484;2023-04-25T10:41:56;9.70;99.90
19952;DHT22;10137;49.406;19.484;2023-04-25T10:44:26;9.60;99.90
19952;DHT22;10137;49.406;19.484;2023-04-25T10:47:03;9.60;99.90
19952;DHT22;10137;49.406;19.484;2023-04-25T10:49:34;9.60;99.90
19952;DHT22;10137;49.406;19.484;2023-04-25T10:52:19;9.50;99.90
19952;DHT22;10137;49.406;19.484;2023-04-25T10:54:54;9.60;99.90
19952;DHT22;10137;49.406;19.484;2023-04-25T10:57:36;9.60;99.90
19952;DHT22;10137;49.406;19.484;2023-04-25T11:00:09;9.50;99.90
19952;DHT22;10137;49.406;19.484;2023-04-25T11:02:42;9.40;99.90
19952;DHT22;10137;49.406;19.484;2023-04-25T11:05:22;9.40;99.90
19952;DHT22;10137;49.406;19.484;2023-04-25T11:07:55;9.30;99.90
19952;DHT22;10137;49.406;19.484;2023-04-25T11:10:25;9.30;99.90
19952;DHT22;10137;49.406;19.484;2023-04-25T11:12:54;9.30;99.90
19952;DHT22;10137;49.406;19.484;2023-04-25T11:15:22;9.30;99.90
19952;DHT22;10137;49.406;19.484;2023-04-25T11:17:52;9.30;99.90
19952;DHT22;10137;49.406;19.484;2023-04-25T11:20:21;9.20;99.90
19952;DHT22;10137;49.406;19.484;2023-04-25T11:22:49;9.10;99.90
19952;DHT22;10137;49.406;19.484;2023-04-25T11:25:17;9.10;99.90
19952;DHT22;10137;49.406;19.484;2023-04-25T11:27:51;9.00;99.90
19952;DHT22;10137;49.406;19.484;2023-04-25T11:30:21;8.80;99.90
19952;DHT22;10137;49.406;19.484;2023-04-25T11:32:58;8.90;99.90
19952;DHT22;10137;49.406;19.484;2023-04-25T11:35:27;9.00;99.90
19952;DHT22;10137;49.406;19.484;2023-04-25T11:37:55;9.10;99.90
19952;DHT22;10137;49.406;19.484;2023-04-25T11:40:23;9.20;99.90
19952;DHT22;10137;49.406;19.484;2023-04-25T11:42:51;9.30;99.90
19952;DHT22;10137;49.406;19.484;2023-04-25T11:45:20;9.30;99.90
19952;DHT22;10137;49.406;19.484;2023-04-25T11:47:49;9.30;99.90
19952;DHT22;10137;49.406;19.484;2023-04-25T11:50:19;9.20;99.90
19952;DHT22;10137;49.406;19.484;2023-04-25T11:52:47;9.30;99.90
19952;DHT22;10137;49.406;19.484;2023-04-25T11:55:18;9.30;99.90
19952;DHT22;10137;49.406;19.484;2023-04-25T11:57:47;9.30;99.90
19952;DHT22;10137;49.406;19.484;2023-04-25T12:00:18;9.40;99.90
19952;DHT22;10137;49.406;19.484;2023-04-25T12:02:50;9.40;99.90
19952;DHT22;10137;49.406;19.484;2023-04-25T12:05:23;9.50;99.90
19952;DHT22;10137;49.406;19.484;2023-04-25T12:07:51;9.50;99.90
19952;DHT22;10137;49.406;19.484;2023-04-25T12:10:19;9.50;99.90
19952;DHT22;10137;49.406;19.484;2023-04-25T12:12:48;9.50;99.90
19952;DHT22;10137;49.406;19.484;2023-04-25T12:15:17;9.60;99.90
19952;DHT22;10137;49.406;19.484;2023-04-25T12:17:47;9.60;99.90
19952;DHT22;10137;49.406;19.484;2023-04-25T12:20:17;9.60;99.90
19952;DHT22;10137;49.406;19.484;2023-04-25T12:22:48;9.60;99.90
19952;DHT22;10137;49.406;19.484;2023-04-25T12:25:34;9.60;99.90
19952;DHT22;10137;49.406;19.484;2023-04-25T12:28:12;9.60;99.90
19952;DHT22;10137;49.406;19.484;2023-04-25T12:30:58;9.50;99.90
19952;DHT22;10137;49.406;19.484;2023-04-25T12:33:29;9.50;99.90
19952;DHT22;10137;49.406;19.484;2023-04-25T12:35:56;9.50;99.90
19952;DHT22;10137;49.406;19.484;2023-04-25T12:38:27;9.50;99.90
19952;DHT22;10137;49.406;19.484;2023-04-25T12:40:57;9.50;99.90
19952;DHT22;10137;49.406;19.484;2023-04-25T12:43:26;9.60;99.90
19952;DHT22;10137;49.406;19.484;2023-04-25T12:45:56;9.60;99.90
19952;DHT22;10137;49.406;19.484;2023-04-25T12:48:24;9.60;99.90
19952;DHT22;10137;49.406;19.484;2023-04-25T12:50:52;9.60;99.90
19952;DHT22;10137;49.406;19.484;2023-04-25T12:53:22;9.60;99.90
19952;DHT22;10137;49.406;19.484;2023-04-25T12:55:52;9.60;99.90
19952;DHT22;10137;49.406;19.484;2023-04-25T12:58:22;9.50;99.90
19952;DHT22;10137;49.406;19.484;2023-04-25T13:00:52;9.60;99.90
19952;DHT22;10137;49.406;19.484;2023-04-25T13:03:24;9.60;99.90
19952;DHT22;10137;49.406;19.484;2023-04-25T13:05:57;9.60;99.90
19952;DHT22;10137;49.406;19.484;2023-04-25T13:08:27;9.50;99.90
19952;DHT22;10137;49.406;19.484;2023-04-25T13:10:56;9.50;99.90
19952;DHT22;10137;49.406;19.484;2023-04-25T13:13:26;9.50;99.90
19952;DHT22;10137;49.406;19.484;2023-04-25T13:15:56;9.40;99.90
19952;DHT22;10137;49.406;19.484;2023-04-25T13:18:24;9.50;99.90
19952;DHT22;10137;49.406;19.484;2023-04-25T13:20:53;9.40;99.90
19952;DHT22;10137;49.406;19.484;2023-04-25T13:23:22;9.30;99.90
19952;DHT22;10137;49.406;19.484;2023-04-25T13:25:51;9.40;99.90
19952;DHT22;10137;49.406;19.484;2023-04-25T13:28:23;9.30;99.90
19952;DHT22;10137;49.406;19.484;2023-04-25T13:30:54;9.30;99.90
19952;DHT22;10137;49.406;19.484;2023-04-25T13:33:22;9.40;99.90
19952;DHT22;10137;49.406;19.484;2023-04-25T13:35:53;9.40;99.90
19952;DHT22;10137;49.406;19.484;2023-04-25T13:38:24;9.40;99.90
19952;DHT22;10137;49.406;19.484;2023-04-25T13:40:55;9.40;99.90
19952;DHT22;10137;49.406;19.484;2023-04-25T13:43:30;9.30;99.90
19952;DHT22;10137;49.406;19.484;2023-04-25T13:46:00;9.30;99.90
19952;DHT22;10137;49.406;19.484;2023-04-25T13:48:31;9.30;99.90
19952;DHT22;10137;49.406;19.484;2023-04-25T13:51:00;9.30;99.90
19952;DHT22;10137;49.406;19.484;2023-04-25T13:53:28;9.30;99.90
19952;DHT22;10137;49.406;19.484;2023-04-25T13:55:56;9.40;99.90
19952;DHT22;10137;49.406;19.484;2023-04-25T13:58:25;9.40;99.90
19952;DHT22;10137;49.406;19.484;2023-04-25T14:00:54;9.40;99.90
19952;DHT22;10137;49.406;19.484;2023-04-25T14:03:22;9.50;99.90
19952;DHT22;10137;49.406;19.484;2023-04-25T14:05:51;9.50;99.90
19952;DHT22;10137;49.406;19.484;2023-04-25T14:08:20;9.50;99.90
19952;DHT22;10137;49.406;19.484;2023-04-25T14:10:47;9.50;99.90
19952;DHT22;10137;49.406;19.484;2023-04-25T14:13:16;9.50;99.90
19952;DHT22;10137;49.406;19.484;2023-04-25T14:15:46;9.60;99.90
19952;DHT22;10137;49.406;19.484;2023-04-25T14:18:14;9.50;99.90
19952;DHT22;10137;49.406;19.484;2023-04-25T14:20:42;9.60;99.90
19952;DHT22;10137;49.406;19.484;2023-04-25T14:23:10;9.70;99.90
19952;DHT22;10137;49.406;19.484;2023-04-25T14:25:39;9.80;99.90
19952;DHT22;10137;49.406;19.484;2023-04-25T14:28:09;9.90;99.90
19952;DHT22;10137;49.406;19.484;2023-04-25T14:30:37;9.90;99.90
19952;DHT22;10137;49.406;19.484;2023-04-25T14:33:07;10.00;99.90
19952;DHT22;10137;49.406;19.484;2023-04-25T14:35:35;10.10;99.90
19952;DHT22;10137;49.406;19.484;2023-04-25T14:38:02;10.20;99.90
19952;DHT22;10137;49.406;19.484;2023-04-25T14:40:29;10.30;99.90
19952;DHT22;10137;49.406;19.484;2023-04-25T14:42:56;10.50;99.90
19952;DHT22;10137;49.406;19.484;2023-04-25T14:45:24;10.60;99.90
19952;DHT22;10137;49.406;19.484;2023-04-25T14:47:51;10.70;99.90
19952;DHT22;10137;49.406;19.484;2023-04-25T14:50:20;10.70;99.90
19952;DHT22;10137;49.406;19.484;2023-04-25T14:52:47;10.70;99.90
19952;DHT22;10137;49.406;19.484;2023-04-25T14:55:15;10.70;99.90
19952;DHT22;10137;49.406;19.484;2023-04-25T14:57:42;10.60;99.90
19952;DHT22;10137;49.406;19.484;2023-04-25T15:00:11;10.60;99.90
19952;DHT22;10137;49.406;19.484;2023-04-25T15:02:41;10.50;99.90
19952;DHT22;10137;49.406;19.484;2023-04-25T15:05:09;10.30;99.90
19952;DHT22;10137;49.406;19.484;2023-04-25T15:07:38;10.30;99.90
19952;DHT22;10137;49.406;19.484;2023-04-25T15:10:07;10.20;99.90
19952;DHT22;10137;49.406;19.484;2023-04-25T15:12:39;10.20;99.90
19952;DHT22;10137;49.406;19.484;2023-04-25T15:15:07;10.20;99.90
19952;DHT22;10137;49.406;19.484;2023-04-25T15:17:37;10.20;99.90
19952;DHT22;10137;49.406;19.484;2023-04-25T15:20:07;10.20;99.90
19952;DHT22;10137;49.406;19.484;2023-04-25T15:22:36;10.20;99.90
19952;DHT22;10137;49.406;19.484;2023-04-25T15:25:06;10.20;99.90
19952;DHT22;10137;49.406;19.484;2023-04-25T15:27:35;10.30;99.90
19952;DHT22;10137;49.406;19.484;2023-04-25T15:30:08;10.30;99.90
19952;DHT22;10137;49.406;19.484;2023-04-25T15:32:37;10.40;99.90
19952;DHT22;10137;49.406;19.484;2023-04-25T15:35:07;10.40;99.90
19952;DHT22;10137;49.406;19.484;2023-04-25T15:37:36;10.40;99.90
19952;DHT22;10137;49.406;19.484;2023-04-25T15:40:09;10.40;99.90
19952;DHT22;10137;49.406;19.484;2023-04-25T15:42:38;10.30;99.90
19952;DHT22;10137;49.406;19.484;2023-04-25T15:45:08;10.40;99.90
19952;DHT22;10137;49.406;19.484;2023-04-25T15:47:37;10.30;99.90